Time;durP1;ratioP1;P1;durP2;ratioP2;P2;SDS_P1;SDS_P2;PMS_P1;PMS_P2;Temp;Humidity;BMP_temperature;BMP_pressure;BME280_temperature;BME280_humidity;BME280_pressure;Samples;Min_cycle;Max_cycle;Signal;HPM_P1;HPM_P2
2022/06/20 00:01:22;;;;;;;15.63;7.10;;;23.90;1.00;;;;;;7369351;19;20024;-59
2022/06/20 00:03:55;;;;;;;14.38;7.35;;;24.10;1.00;;;;;;7364846;19;20101;-59
2022/06/20 00:06:27;;;;;;;21.58;7.28;;;24.10;1.00;;;;;;7390867;19;20019;-59
2022/06/20 00:08:57;;;;;;;13.85;7.00;;;24.00;1.00;;;;;;7370612;19;20006;-59
2022/06/20 00:11:31;;;;;;;15.20;7.13;;;24.00;1.00;;;;;;7368005;19;20006;-60
2022/06/20 00:14:01;;;;;;;14.05;7.68;;;23.90;1.00;;;;;;7366486;19;20082;-60
2022/06/20 00:16:35;;;;;;;14.25;7.43;;;23.80;1.00;;;;;;7368994;19;20438;-60
2022/06/20 00:19:09;;;;;;;17.63;7.13;;;23.80;1.00;;;;;;7371107;19;20544;-59
2022/06/20 00:21:40;;;;;;;13.95;7.80;;;23.70;1.00;;;;;;7390171;19;20018;-59
2022/06/20 00:24:11;;;;;;;16.80;8.10;;;23.60;1.00;;;;;;7363537;19;20014;-59
2022/06/20 00:26:41;;;;;;;17.65;7.55;;;23.60;1.00;;;;;;7367402;19;20020;-59
2022/06/20 00:29:13;;;;;;;13.95;7.25;;;23.70;1.00;;;;;;7370727;19;20029;-59
2022/06/20 00:31:43;;;;;;;14.50;7.32;;;23.60;1.00;;;;;;7368127;19;20010;-59
2022/06/20 00:34:16;;;;;;;12.90;7.18;;;23.60;1.00;;;;;;7361540;19;20011;-59
2022/06/20 00:36:46;;;;;;;17.35;8.32;;;23.70;1.00;;;;;;7376102;19;20127;-59
2022/06/20 00:39:16;;;;;;;16.95;7.70;;;23.80;1.00;;;;;;7391970;19;20089;-59
2022/06/20 00:41:45;;;;;;;12.23;6.97;;;23.80;1.00;;;;;;7366941;19;20010;-59
2022/06/20 00:44:21;;;;;;;18.80;8.13;;;23.80;1.00;;;;;;7365212;19;20081;-59
2022/06/20 00:47:14;;;;;;;17.75;7.55;;;23.60;1.00;;;;;;7368382;19;20002;-59
2022/06/20 00:50:09;;;;;;;13.27;7.28;;;23.60;1.00;;;;;;7370138;19;20007;-59
2022/06/20 00:53:04;;;;;;;15.13;7.28;;;23.60;1.00;;;;;;7362519;19;20502;-59
2022/06/20 00:55:56;;;;;;;14.48;7.18;;;23.70;1.00;;;;;;7367376;19;20046;-58
2022/06/20 00:58:49;;;;;;;13.95;7.07;;;23.70;1.00;;;;;;7370308;19;20015;-58
2022/06/20 01:01:41;;;;;;;15.80;6.97;;;23.80;1.00;;;;;;7367101;19;20014;-59
2022/06/20 01:04:36;;;;;;;14.50;6.45;;;23.90;1.00;;;;;;7366167;19;20047;-59
2022/06/20 01:07:39;;;;;;;19.40;7.95;;;24.00;1.00;;;;;;7366955;19;20006;-60
2022/06/20 01:10:30;;;;;;;20.52;7.75;;;24.10;1.00;;;;;;7369772;19;20011;-60
2022/06/20 01:13:22;;;;;;;21.77;7.95;;;24.10;1.00;;;;;;7364644;19;20010;-60
2022/06/20 01:16:24;;;;;;;16.85;7.78;;;23.90;1.00;;;;;;7366854;19;20486;-60
2022/06/20 01:19:25;;;;;;;16.42;8.57;;;23.70;1.00;;;;;;7369702;19;20040;-59
2022/06/20 01:22:26;;;;;;;14.95;8.50;;;23.20;1.00;;;;;;7364513;19;20393;-59
2022/06/20 01:25:30;;;;;;;20.50;8.85;;;23.40;1.00;;;;;;7367995;19;20006;-60
2022/06/20 01:28:25;;;;;;;21.58;9.18;;;23.40;1.20;;;;;;7368767;19;20010;-59
2022/06/20 01:31:15;;;;;;;19.05;9.15;;;23.30;1.00;;;;;;7364877;19;20007;-59
2022/06/20 01:34:05;;;;;;;13.90;8.48;;;23.00;1.00;;;;;;7363113;19;20020;-60
2022/06/20 01:40:06;;;;;;;20.38;9.63;;;23.00;1.60;;;;;;7368719;19;20021;-59
2022/06/20 01:42:52;;;;;;;20.83;9.60;;;23.00;1.50;;;;;;7360415;19;20010;-60
2022/06/20 01:48:49;;;;;;;21.60;9.57;;;22.80;1.00;;;;;;7265156;19;2004446;-60
2022/06/20 01:51:42;;;;;;;13.98;8.45;;;22.90;1.40;;;;;;7388640;19;20108;-60
2022/06/20 01:54:36;;;;;;;20.67;8.95;;;23.00;1.00;;;;;;7364667;19;20026;-60
2022/06/20 01:57:25;;;;;;;18.63;9.52;;;22.80;1.00;;;;;;7365263;19;20014;-59
2022/06/20 02:00:18;;;;;;;15.50;8.60;;;22.80;1.00;;;;;;7367751;19;20014;-59
2022/06/20 02:03:12;;;;;;;20.27;9.23;;;23.00;1.00;;;;;;7357421;19;20035;-59
2022/06/20 02:06:01;;;;;;;13.65;8.52;;;22.80;1.00;;;;;;7364197;19;20042;-60
2022/06/20 02:08:53;;;;;;;14.63;8.30;;;22.90;1.20;;;;;;7366450;19;20022;-59
2022/06/20 02:11:43;;;;;;;14.85;8.68;;;22.70;1.30;;;;;;7364911;19;20007;-60
2022/06/20 02:14:36;;;;;;;21.42;9.10;;;22.80;2.10;;;;;;7365019;19;20006;-60
2022/06/20 02:17:29;;;;;;;23.85;9.93;;;23.00;1.50;;;;;;7365542;19;20095;-59
2022/06/20 02:20:24;;;;;;;15.23;10.20;;;22.70;3.10;;;;;;7367300;19;20011;-59
2022/06/20 02:23:13;;;;;;;16.13;9.65;;;22.40;5.60;;;;;;7361940;19;20014;-59
2022/06/20 02:26:03;;;;;;;17.92;9.32;;;22.40;7.40;;;;;;7362570;19;20018;-59
2022/06/20 02:29:01;;;;;;;16.02;8.98;;;22.40;8.00;;;;;;7366813;19;20014;-59
2022/06/20 02:31:53;;;;;;;16.67;10.15;;;22.40;8.20;;;;;;7364586;19;20017;-58
2022/06/20 02:34:42;;;;;;;18.60;10.73;;;22.20;8.70;;;;;;7364217;19;20014;-59
2022/06/20 02:37:35;;;;;;;16.02;10.75;;;22.40;11.10;;;;;;7364570;19;20078;-58
2022/06/20 02:40:28;;;;;;;15.55;9.63;;;22.50;11.00;;;;;;7366736;19;20593;-58
2022/06/20 02:43:22;;;;;;;19.20;10.90;;;22.60;10.80;;;;;;7361519;19;20036;-58
2022/06/20 02:46:13;;;;;;;16.58;10.10;;;22.70;10.10;;;;;;7363381;19;20014;-59
2022/06/20 02:49:09;;;;;;;20.10;10.07;;;22.60;10.40;;;;;;7365843;19;20013;-59
2022/06/20 02:51:59;;;;;;;21.75;9.75;;;22.50;9.90;;;;;;7362781;19;20018;-59
2022/06/20 02:54:51;;;;;;;20.48;9.55;;;22.60;9.20;;;;;;7363404;19;20025;-59
2022/06/20 02:57:46;;;;;;;17.25;10.98;;;22.70;9.00;;;;;;7387107;19;20383;-58
2022/06/20 03:00:36;;;;;;;;;;;22.70;7.30;;;;;;7366203;19;20018;-59
2022/06/20 03:03:31;;;;;;;19.20;10.70;;;23.00;4.90;;;;;;7361356;19;19923;-58
2022/06/20 03:06:25;;;;;;;19.27;12.00;;;23.00;4.50;;;;;;7362139;19;20580;-58
2022/06/20 03:09:17;;;;;;;20.60;11.93;;;22.90;5.30;;;;;;7365108;19;20478;-58
2022/06/20 03:12:09;;;;;;;18.35;10.95;;;22.90;5.90;;;;;;7359206;19;20053;-59
2022/06/20 03:15:01;;;;;;;22.08;10.65;;;22.80;6.50;;;;;;7363087;19;20014;-58
2022/06/20 03:17:52;;;;;;;20.15;11.70;;;22.80;6.50;;;;;;7364315;19;20539;-59
2022/06/20 03:20:42;;;;;;;20.42;11.43;;;22.70;7.10;;;;;;7364408;19;20007;-58
2022/06/20 03:23:34;;;;;;;19.48;11.43;;;22.60;8.40;;;;;;7359941;19;20003;-58
2022/06/20 03:26:27;;;;;;;18.92;11.52;;;22.70;7.20;;;;;;7362114;19;20022;-58
2022/06/20 03:29:20;;;;;;;13.82;10.15;;;22.60;9.00;;;;;;7365455;19;20025;-58
2022/06/20 03:32:09;;;;;;;20.73;11.32;;;22.50;8.80;;;;;;7359772;19;20010;-58
2022/06/20 03:34:58;;;;;;;18.55;11.35;;;22.20;11.40;;;;;;7364111;19;20015;-59
2022/06/20 03:37:47;;;;;;;20.20;10.80;;;22.00;13.10;;;;;;7364069;19;20450;-59
2022/06/20 03:40:39;;;;;;;17.02;10.88;;;21.80;11.10;;;;;;7365511;19;20014;-59
2022/06/20 03:43:29;;;;;;;15.82;10.45;;;21.70;11.40;;;;;;7360305;19;20015;-58
2022/06/20 03:46:24;;;;;;;16.52;10.38;;;21.50;13.10;;;;;;7361279;19;20528;-59
2022/06/20 03:49:18;;;;;;;18.25;10.82;;;21.30;11.80;;;;;;7365117;19;20011;-59
2022/06/20 03:52:14;;;;;;;16.15;10.23;;;21.30;11.60;;;;;;7359298;19;20025;-59
2022/06/20 03:55:09;;;;;;;19.65;10.82;;;21.30;11.80;;;;;;7364960;19;20014;-59
2022/06/20 03:58:02;;;;;;;21.83;11.13;;;21.20;13.90;;;;;;7363601;19;20014;-59
2022/06/20 04:00:54;;;;;;;20.90;10.60;;;21.30;14.10;;;;;;7361895;19;20074;-60
2022/06/20 04:03:49;;;;;;;17.88;11.30;;;20.90;14.20;;;;;;7381832;19;20548;-59
2022/06/20 04:06:44;;;;;;;20.80;10.80;;;20.80;15.50;;;;;;7361183;19;20002;-59
2022/06/20 04:12:44;;;;;;;22.05;11.43;;;20.70;17.30;;;;;;7254253;19;2004509;-59
2022/06/20 04:15:40;;;;;;;20.30;11.25;;;20.80;16.90;;;;;;7385356;19;20014;-58
2022/06/20 04:18:33;;;;;;;20.00;9.95;;;21.10;17.00;;;;;;7361154;19;20006;-59
2022/06/20 04:21:29;;;;;;;20.67;9.93;;;20.80;16.70;;;;;;7360732;19;20043;-59
2022/06/20 04:24:24;;;;;;;13.80;9.70;;;20.70;15.60;;;;;;7358540;19;20003;-59
2022/06/20 04:27:20;;;;;;;16.58;8.65;;;20.70;14.70;;;;;;7365185;19;20015;-59
2022/06/20 04:30:15;;;;;;;15.38;8.73;;;20.70;14.70;;;;;;7370129;19;20018;-58
2022/06/20 04:33:09;;;;;;;13.68;7.93;;;20.70;11.40;;;;;;7361535;19;20103;-59
2022/06/20 04:36:16;;;;;;;16.52;8.73;;;20.70;10.70;;;;;;7366756;19;20033;-59
2022/06/20 04:39:17;;;;;;;16.45;8.15;;;20.70;10.50;;;;;;7369743;19;20013;-58
2022/06/20 04:42:13;;;;;;;18.45;7.63;;;20.90;9.20;;;;;;7364231;19;20482;-59
2022/06/20 04:45:15;;;;;;;11.38;6.85;;;20.70;7.60;;;;;;7368683;19;20048;-59
2022/06/20 04:48:10;;;;;;;13.95;6.55;;;20.60;7.60;;;;;;7369538;19;20010;-59
2022/06/20 04:51:03;;;;;;;15.90;7.15;;;20.80;7.30;;;;;;7366555;19;20010;-59
2022/06/20 04:53:53;;;;;;;13.48;6.20;;;20.90;5.70;;;;;;7363735;19;20007;-59
2022/06/20 04:56:44;;;;;;;14.45;6.15;;;21.10;5.30;;;;;;7365491;19;20060;-60
2022/06/20 04:59:35;;;;;;;10.40;6.35;;;20.90;3.50;;;;;;7369308;19;20002;-59
2022/06/20 05:02:25;;;;;;;11.55;6.45;;;20.70;3.90;;;;;;7363403;19;20045;-59
2022/06/20 05:05:18;;;;;;;13.27;6.60;;;20.30;5.20;;;;;;7368963;19;20007;-59
2022/06/20 05:08:10;;;;;;;12.82;6.38;;;20.20;6.00;;;;;;7368433;19;20532;-59
2022/06/20 05:11:03;;;;;;;10.15;6.00;;;20.40;7.00;;;;;;7365550;19;20018;-59
2022/06/20 05:14:01;;;;;;;12.35;5.88;;;20.40;6.40;;;;;;7361853;19;20014;-58
2022/06/20 05:16:53;;;;;;;13.00;6.25;;;20.50;4.20;;;;;;7365571;19;20025;-59
2022/06/20 05:19:47;;;;;;;10.43;5.55;;;20.60;3.70;;;;;;7368940;19;20007;-59
2022/06/20 05:22:40;;;;;;;14.60;5.90;;;20.40;1.30;;;;;;7364860;19;20082;-59
2022/06/20 05:25:30;;;;;;;13.07;5.57;;;20.40;2.40;;;;;;7367344;19;20018;-59
2022/06/20 05:28:21;;;;;;;17.10;5.50;;;20.50;1.00;;;;;;7368346;19;20006;-59
2022/06/20 05:31:14;;;;;;;9.38;5.70;;;20.70;1.00;;;;;;7365831;19;20014;-59
2022/06/20 05:34:09;;;;;;;11.85;4.93;;;21.00;1.00;;;;;;7361793;19;20018;-60
2022/06/20 05:36:49;;;;;;;14.13;5.78;;;21.10;1.00;;;;;;7386302;19;20365;-59
2022/06/20 05:39:25;;;;;;;10.82;5.25;;;20.90;1.00;;;;;;7367973;19;20415;-59
2022/06/20 05:41:55;;;;;;;16.77;6.10;;;21.00;1.00;;;;;;7364353;19;20385;-59
2022/06/20 05:44:25;;;;;;;13.85;5.47;;;20.90;1.00;;;;;;7364419;19;20090;-60
2022/06/20 05:47:03;;;;;;;13.57;5.53;;;20.60;1.00;;;;;;7365115;19;20006;-61
2022/06/20 05:49:38;;;;;;;11.50;5.53;;;20.90;1.00;;;;;;7368646;19;20025;-60
2022/06/20 05:52:10;;;;;;;15.20;5.03;;;21.20;1.00;;;;;;7363671;19;20011;-59
2022/06/20 05:54:43;;;;;;;13.43;5.13;;;21.10;1.00;;;;;;7385536;19;20086;-59
2022/06/20 05:57:17;;;;;;;19.08;5.43;;;21.20;1.00;;;;;;7363814;19;20014;-59
2022/06/20 05:59:51;;;;;;;12.48;5.30;;;21.40;1.00;;;;;;7366657;19;20228;-60
2022/06/20 06:02:28;;;;;;;12.75;5.80;;;21.50;1.00;;;;;;7363181;19;20003;-59
2022/06/20 06:05:07;;;;;;;14.00;5.15;;;21.30;1.00;;;;;;7362957;19;20089;-59
2022/06/20 06:07:43;;;;;;;16.85;5.57;;;20.80;1.00;;;;;;7365794;19;20017;-59
2022/06/20 06:10:29;;;;;;;11.93;5.43;;;21.00;1.00;;;;;;7364852;19;20018;-59
2022/06/20 06:13:09;;;;;;;10.40;5.75;;;21.20;1.00;;;;;;7358385;19;20011;-58
2022/06/20 06:16:46;;;;;;;10.80;5.50;;;21.50;1.00;;;;;;7385558;19;20339;-59
2022/06/20 06:18:42;;;;;;;12.90;5.47;;;21.40;1.00;;;;;;7365935;19;20007;-60
2022/06/20 06:21:12;;;;;;;11.50;5.47;;;21.00;1.00;;;;;;7363893;19;20518;-59
2022/06/20 06:23:43;;;;;;;10.63;5.20;;;20.80;1.00;;;;;;7359375;19;20474;-59
2022/06/20 06:26:17;;;;;;;14.65;5.15;;;20.90;1.00;;;;;;7363739;19;20067;-59
2022/06/20 06:28:48;;;;;;;12.90;5.20;;;21.00;1.00;;;;;;7364257;19;20044;-60
2022/06/20 06:31:23;;;;;;;9.98;5.28;;;20.80;1.00;;;;;;7362566;19;20098;-58
2022/06/20 06:34:02;;;;;;;10.40;4.78;;;21.00;1.00;;;;;;7359966;19;20014;-59
2022/06/20 06:36:37;;;;;;;12.63;5.63;;;21.30;1.00;;;;;;7384457;19;20063;-58
2022/06/20 06:39:13;;;;;;;10.95;4.97;;;21.60;1.00;;;;;;7365894;19;20013;-59
2022/06/20 06:41:48;;;;;;;13.52;5.60;;;21.30;1.00;;;;;;7363350;19;20037;-59
2022/06/20 06:44:20;;;;;;;12.80;4.97;;;21.30;1.00;;;;;;7360951;19;20110;-59
2022/06/20 06:46:53;;;;;;;14.80;4.95;;;21.90;1.00;;;;;;7362336;19;20015;-60
2022/06/20 06:49:35;;;;;;;14.63;5.65;;;22.20;1.00;;;;;;7364723;19;20013;-60
2022/06/20 06:52:11;;;;;;;12.00;5.18;;;22.60;1.00;;;;;;7358851;19;20023;-60
2022/06/20 06:54:58;;;;;;;7.80;5.40;;;23.10;1.00;;;;;;7384184;19;20017;-61
2022/06/20 06:57:35;;;;;;;12.35;5.03;;;22.80;1.00;;;;;;7361322;19;20467;-61
2022/06/20 07:00:25;;;;;;;11.65;5.35;;;23.50;1.00;;;;;;7364237;19;20354;-61
2022/06/20 07:03:02;;;;;;;15.25;4.90;;;23.90;1.00;;;;;;7355823;19;20078;-60
2022/06/20 07:05:39;;;;;;;14.40;5.30;;;24.10;1.00;;;;;;7361462;19;20102;-60
2022/06/20 07:08:14;;;;;;;11.40;4.93;;;24.00;1.00;;;;;;7362543;19;20576;-61
2022/06/20 07:10:52;;;;;;;10.10;4.75;;;24.40;1.00;;;;;;7361971;19;20017;-62
2022/06/20 07:13:36;;;;;;;12.23;5.10;;;24.50;1.00;;;;;;7357445;19;20160;-62
2022/06/20 07:16:14;;;;;;;13.98;5.88;;;24.40;1.00;;;;;;7361435;19;20004;-61
2022/06/20 07:18:48;;;;;;;13.20;5.03;;;24.80;1.00;;;;;;7384932;19;20021;-62
2022/06/20 07:21:23;;;;;;;10.80;5.50;;;25.60;1.00;;;;;;7360774;19;20011;-60
2022/06/20 07:23:56;;;;;;;11.85;5.25;;;24.80;1.00;;;;;;7357680;19;20018;-60
2022/06/20 07:26:29;;;;;;;14.50;4.93;;;24.90;1.00;;;;;;7360195;19;20011;-62
2022/06/20 07:29:03;;;;;;;11.07;5.63;;;24.90;1.00;;;;;;7364553;19;20032;-61
2022/06/20 07:31:39;;;;;;;9.57;4.90;;;24.90;1.00;;;;;;7361770;19;20017;-61
2022/06/20 07:34:14;;;;;;;11.02;5.43;;;24.80;1.00;;;;;;7358338;19;20031;-61
2022/06/20 07:36:52;;;;;;;14.45;6.10;;;24.70;1.00;;;;;;7383473;19;20010;-61
2022/06/20 07:39:26;;;;;;;13.32;5.63;;;24.70;1.00;;;;;;7364061;19;20018;-61
2022/06/20 07:42:02;;;;;;;11.90;5.50;;;24.60;1.00;;;;;;7361254;19;20031;-60
2022/06/20 07:44:37;;;;;;;8.35;5.15;;;25.10;1.00;;;;;;7360731;19;20014;-61
2022/06/20 07:47:13;;;;;;;15.07;5.85;;;25.70;1.00;;;;;;7361135;19;20083;-61
2022/06/20 07:49:47;;;;;;;17.33;5.47;;;25.10;1.00;;;;;;7364297;19;20013;-61
2022/06/20 07:52:21;;;;;;;;;;;24.70;1.00;;;;;;7360322;19;20007;-60
2022/06/20 07:54:56;;;;;;;15.77;5.40;;;25.10;1.00;;;;;;7360602;19;20365;-61
2022/06/20 07:57:29;;;;;;;13.75;5.55;;;24.50;1.00;;;;;;7379917;19;20546;-61
2022/06/20 08:00:06;;;;;;;9.57;5.90;;;24.70;1.00;;;;;;7358499;19;20010;-61
2022/06/20 08:02:41;;;;;;;13.85;5.53;;;25.10;1.00;;;;;;7363756;19;20078;-61
2022/06/20 08:05:15;;;;;;;16.20;5.22;;;24.90;1.00;;;;;;7366003;19;20007;-61
2022/06/20 08:07:50;;;;;;;16.85;5.50;;;25.30;1.00;;;;;;7367224;19;20173;-61
2022/06/20 08:10:30;;;;;;;15.88;5.90;;;24.90;1.00;;;;;;7369128;19;20052;-60
2022/06/20 08:13:07;;;;;;;13.35;5.93;;;24.50;1.00;;;;;;7363345;19;20025;-60
2022/06/20 08:15:43;;;;;;;10.82;5.57;;;25.00;1.00;;;;;;7390049;19;20385;-60
2022/06/20 08:18:13;;;;;;;11.93;4.97;;;24.50;1.00;;;;;;7368092;19;20021;-60
2022/06/20 08:20:49;;;;;;;10.85;5.95;;;24.60;1.00;;;;;;7369628;19;20373;-60
2022/06/20 08:23:29;;;;;;;13.77;5.18;;;25.00;1.00;;;;;;7362946;19;20006;-60
2022/06/20 08:26:01;;;;;;;15.25;5.43;;;24.70;1.00;;;;;;7367181;19;20032;-60
2022/06/20 08:28:37;;;;;;;10.45;5.00;;;25.00;1.00;;;;;;7367612;19;20015;-60
2022/06/20 08:31:14;;;;;;;12.55;5.57;;;25.20;1.00;;;;;;7367835;19;20019;-60
2022/06/20 08:33:51;;;;;;;10.40;5.30;;;25.10;1.00;;;;;;7385346;19;20115;-60
2022/06/20 08:36:25;;;;;;;10.95;5.30;;;25.40;1.00;;;;;;7366990;19;20074;-60
2022/06/20 08:39:08;;;;;;;8.02;4.75;;;25.40;1.00;;;;;;7369774;19;20507;-60
2022/06/20 08:42:05;;;;;;;10.52;5.28;;;25.80;1.00;;;;;;7366488;19;20089;-60
2022/06/20 08:45:11;;;;;;;9.73;5.45;;;25.90;1.00;;;;;;7359775;19;20017;-60
2022/06/20 08:48:29;;;;;;;11.38;4.68;;;25.40;1.00;;;;;;7362300;19;20029;-61
2022/06/20 08:51:26;;;;;;;14.82;5.70;;;26.00;1.00;;;;;;7363812;19;20020;-60
2022/06/20 08:54:29;;;;;;;14.35;5.55;;;25.80;1.00;;;;;;7362206;19;20039;-59
2022/06/20 08:57:05;;;;;;;10.05;5.10;;;26.10;1.00;;;;;;7362976;19;20011;-60
2022/06/20 09:00:03;;;;;;;9.63;5.25;;;25.70;1.00;;;;;;7365699;19;20049;-60
2022/06/20 09:02:57;;;;;;;13.07;5.53;;;26.30;1.00;;;;;;7362325;19;20025;-60
2022/06/20 09:06:04;;;;;;;14.30;5.68;;;26.00;1.00;;;;;;7366876;19;20010;-60
2022/06/20 09:08:55;;;;;;;10.43;5.35;;;25.80;1.00;;;;;;7364618;19;20019;-61
2022/06/20 09:12:01;;;;;;;10.57;5.05;;;26.80;1.00;;;;;;7363452;19;20097;-61
2022/06/20 09:14:44;;;;;;;12.73;5.40;;;26.50;1.00;;;;;;7363298;19;20031;-60
2022/06/20 09:17:24;;;;;;;12.63;5.13;;;26.50;1.00;;;;;;7364145;19;20013;-59
2022/06/20 09:20:10;;;;;;;12.40;5.85;;;26.80;1.00;;;;;;7366248;19;20078;-60
2022/06/20 09:22:52;;;;;;;15.43;5.05;;;26.60;1.00;;;;;;7362379;19;20024;-60
2022/06/20 09:25:35;;;;;;;13.15;5.32;;;26.20;1.00;;;;;;7360463;19;20007;-61
2022/06/20 09:28:26;;;;;;;10.95;4.78;;;26.80;1.00;;;;;;7364730;19;20044;-60
2022/06/20 09:31:06;;;;;;;11.60;5.25;;;27.50;1.00;;;;;;7364415;19;20002;-60
2022/06/20 09:33:44;;;;;;;16.27;5.45;;;26.50;1.00;;;;;;7382146;19;20750;-61
2022/06/20 09:36:39;;;;;;;9.25;4.95;;;26.60;1.00;;;;;;7365969;19;20014;-60
2022/06/20 09:39:32;;;;;;;10.48;5.07;;;26.90;1.00;;;;;;7365417;19;20021;-59
2022/06/20 09:42:08;;;;;;;15.95;5.57;;;26.90;1.00;;;;;;7361872;19;20010;-59
2022/06/20 09:44:51;;;;;;;9.35;4.78;;;26.80;1.00;;;;;;7363390;19;20118;-61
2022/06/20 09:47:35;;;;;;;9.07;5.28;;;26.80;1.00;;;;;;7364432;19;20038;-60
2022/06/20 09:50:22;;;;;;;;;;;26.30;1.00;;;;;;7364868;19;20017;-59
2022/06/20 09:53:05;;;;;;;13.80;5.32;;;26.30;1.00;;;;;;7355272;19;19939;-60
2022/06/20 09:55:44;;;;;;;10.48;5.40;;;26.40;1.00;;;;;;7362587;19;20091;-60
2022/06/20 09:58:22;;;;;;;12.20;5.75;;;26.90;1.00;;;;;;7363415;19;20033;-60
2022/06/20 10:01:01;;;;;;;12.15;5.00;;;26.20;1.00;;;;;;7362169;19;20098;-60
2022/06/20 10:03:42;;;;;;;15.82;5.60;;;27.50;1.00;;;;;;7382244;19;20014;-60
2022/06/20 10:06:23;;;;;;;15.38;5.72;;;27.80;1.00;;;;;;7364963;19;20022;-60
2022/06/20 10:09:03;;;;;;;9.98;5.35;;;26.30;1.00;;;;;;7363430;19;20086;-60
2022/06/20 10:11:41;;;;;;;8.85;4.93;;;28.30;1.00;;;;;;7362617;19;20027;-61
2022/06/20 10:14:18;;;;;;;12.68;5.28;;;26.70;1.00;;;;;;7360108;19;20014;-60
2022/06/20 10:17:09;;;;;;;11.73;5.20;;;26.20;1.00;;;;;;7363709;19;20014;-61
2022/06/20 10:19:46;;;;;;;14.43;5.03;;;26.60;1.00;;;;;;7365624;19;20097;-60
2022/06/20 10:22:25;;;;;;;11.88;5.05;;;26.90;1.00;;;;;;7361239;19;20017;-61
2022/06/20 10:25:16;;;;;;;13.20;5.45;;;26.70;1.00;;;;;;7359250;19;20086;-61
2022/06/20 10:28:15;;;;;;;10.38;4.97;;;26.90;1.00;;;;;;7362939;19;20027;-59
2022/06/20 10:30:50;;;;;;;9.05;4.85;;;27.00;1.00;;;;;;7379838;19;20510;-60
2022/06/20 10:33:32;;;;;;;13.43;5.47;;;27.40;1.00;;;;;;7381206;19;20010;-59
2022/06/20 10:36:16;;;;;;;16.65;5.45;;;27.10;1.00;;;;;;7363700;19;20054;-60
2022/06/20 10:38:52;;;;;;;;;;;26.60;1.00;;;;;;7363213;19;20027;-59
2022/06/20 10:41:28;;;;;;;10.80;5.25;;;26.30;1.00;;;;;;7362851;19;19930;-59
2022/06/20 10:44:07;;;;;;;11.98;5.72;;;26.90;1.00;;;;;;7359426;19;20010;-59
2022/06/20 10:46:44;;;;;;;10.85;5.20;;;26.80;1.00;;;;;;7361858;19;20738;-60
2022/06/20 10:49:41;;;;;;;12.80;6.28;;;27.60;1.00;;;;;;7363758;19;20366;-61
2022/06/20 10:52:24;;;;;;;10.13;5.20;;;26.50;1.00;;;;;;7358719;19;20011;-60
2022/06/20 10:55:09;;;;;;;13.98;5.13;;;26.40;1.00;;;;;;7359637;19;20481;-61
2022/06/20 10:57:51;;;;;;;14.43;5.47;;;27.40;1.00;;;;;;7385652;19;20010;-60
2022/06/20 11:00:25;;;;;;;9.95;4.63;;;27.20;1.00;;;;;;7364772;19;20571;-59
2022/06/20 11:03:19;;;;;;;12.68;5.70;;;27.80;1.00;;;;;;7355653;19;20078;-60
2022/06/20 11:05:58;;;;;;;10.38;5.57;;;27.60;1.00;;;;;;7362762;19;20010;-58
2022/06/20 11:08:39;;;;;;;11.88;5.95;;;26.90;1.00;;;;;;7359339;19;20014;-58
2022/06/20 11:11:24;;;;;;;13.35;5.40;;;26.80;1.00;;;;;;7362336;19;20014;-59
2022/06/20 11:14:00;;;;;;;14.32;6.00;;;26.70;1.00;;;;;;7357055;19;20013;-60
2022/06/20 11:16:37;;;;;;;8.70;5.68;;;27.20;1.00;;;;;;7363215;19;20094;-59
2022/06/20 11:19:21;;;;;;;10.25;5.25;;;26.50;1.00;;;;;;7363371;19;20062;-59
2022/06/20 11:22:04;;;;;;;13.35;5.47;;;27.20;1.00;;;;;;7360832;19;20784;-59
2022/06/20 11:24:48;;;;;;;9.68;5.20;;;26.30;1.00;;;;;;7384178;19;20019;-61
2022/06/20 11:27:48;;;;;;;7.35;4.57;;;26.30;1.00;;;;;;7362005;19;20015;-60
2022/06/20 11:30:23;;;;;;;10.52;4.70;;;26.50;1.00;;;;;;7363000;19;20003;-61
2022/06/20 11:33:09;;;;;;;8.30;4.80;;;27.10;1.00;;;;;;7359733;19;20021;-60
2022/06/20 11:35:48;;;;;;;7.45;4.90;;;27.30;1.00;;;;;;7365229;19;20006;-60
2022/06/20 11:38:44;;;;;;;10.45;4.63;;;26.60;1.00;;;;;;7370730;19;20345;-61
2022/06/20 11:41:18;;;;;;;8.35;4.55;;;26.30;1.00;;;;;;7369493;19;20011;-60
2022/06/20 11:44:18;;;;;;;10.77;5.40;;;27.20;1.00;;;;;;7365741;19;20028;-62
2022/06/20 11:47:10;;;;;;;23.77;5.15;;;27.20;1.00;;;;;;7369115;19;20022;-59
2022/06/20 11:49:59;;;;;;;7.50;4.93;;;26.60;1.00;;;;;;7368555;19;20029;-60
2022/06/20 11:52:41;;;;;;;10.23;5.30;;;26.50;1.00;;;;;;7365896;19;20101;-60
2022/06/20 11:55:21;;;;;;;11.85;5.15;;;26.20;1.00;;;;;;7368071;19;20030;-60
2022/06/20 11:57:57;;;;;;;12.05;5.70;;;26.10;1.00;;;;;;7369330;19;20014;-59
2022/06/20 12:00:36;;;;;;;15.35;6.50;;;25.40;1.00;;;;;;7393741;19;20069;-61
2022/06/20 12:03:18;;;;;;;13.30;5.93;;;25.10;1.00;;;;;;7366683;19;20031;-61
2022/06/20 12:05:59;;;;;;;13.05;5.35;;;25.30;1.00;;;;;;7366423;19;20010;-60
2022/06/20 12:08:42;;;;;;;10.57;4.75;;;25.00;1.00;;;;;;7368429;19;20102;-61
2022/06/20 12:11:36;;;;;;;10.00;4.95;;;24.50;1.00;;;;;;7366920;19;20093;-60
2022/06/20 12:14:18;;;;;;;12.23;5.18;;;24.30;1.00;;;;;;7364067;19;20075;-60
2022/06/20 12:16:56;;;;;;;6.32;4.28;;;24.30;1.00;;;;;;7368711;19;20007;-59
2022/06/20 12:25:27;;;;;;;12.60;5.30;;;24.40;1.00;;;;;;7367072;19;20007;-61
2022/06/20 12:28:00;;;;;;;12.68;4.47;;;24.10;1.00;;;;;;7368381;19;20050;-62
2022/06/20 12:30:33;;;;;;;11.23;4.60;;;24.10;1.00;;;;;;7389487;19;20006;-60
2022/06/20 12:33:04;;;;;;;11.80;5.10;;;24.00;1.00;;;;;;7365240;19;20042;-59
2022/06/20 12:35:40;;;;;;;12.77;4.70;;;24.20;1.00;;;;;;7365635;19;20018;-59
2022/06/20 12:38:18;;;;;;;14.75;5.18;;;24.40;1.00;;;;;;7368448;19;20014;-58
2022/06/20 12:40:51;;;;;;;8.82;4.22;;;23.90;1.00;;;;;;7367654;19;20010;-59
2022/06/20 12:43:28;;;;;;;11.63;4.70;;;24.20;1.00;;;;;;7364796;19;20509;-59
2022/06/20 12:46:21;;;;;;;11.82;5.15;;;24.10;1.00;;;;;;7367385;19;20015;-60
2022/06/20 12:49:14;;;;;;;10.23;4.53;;;24.40;1.00;;;;;;7367503;19;20029;-60
2022/06/20 12:51:52;;;;;;;10.75;4.72;;;24.60;1.00;;;;;;7388748;19;20021;-60
2022/06/20 12:54:39;;;;;;;10.40;5.60;;;24.80;1.00;;;;;;7364342;19;20007;-60
2022/06/20 12:57:29;;;;;;;8.32;5.00;;;24.90;1.00;;;;;;7364835;19;20078;-61
2022/06/20 13:00:21;;;;;;;8.73;5.22;;;24.90;1.00;;;;;;7365648;19;20014;-60
2022/06/20 13:03:25;;;;;;;10.02;4.80;;;25.00;1.00;;;;;;7363272;19;20015;-60
2022/06/20 13:06:31;;;;;;;9.38;4.78;;;24.80;1.00;;;;;;7363858;19;20485;-59
2022/06/20 13:09:18;;;;;;;7.03;4.90;;;24.60;1.00;;;;;;7367198;19;20065;-59
2022/06/20 13:12:01;;;;;;;9.35;4.40;;;24.80;1.00;;;;;;7365448;19;20557;-59
2022/06/20 13:14:46;;;;;;;9.27;4.65;;;24.00;1.00;;;;;;7361207;19;20389;-59
2022/06/20 13:17:31;;;;;;;7.93;4.47;;;23.70;1.00;;;;;;7365376;19;20802;-59
2022/06/20 13:20:34;;;;;;;7.40;3.80;;;24.10;1.00;;;;;;7367134;19;20006;-60
2022/06/20 13:23:30;;;;;;;8.93;3.88;;;24.10;1.00;;;;;;7361898;19;20026;-59
2022/06/20 13:26:11;;;;;;;7.63;3.63;;;23.60;1.00;;;;;;7364208;19;20674;-60
2022/06/20 13:28:48;;;;;;;11.05;4.03;;;23.80;1.00;;;;;;7366695;19;20070;-59
2022/06/20 13:31:23;;;;;;;6.28;4.07;;;23.70;1.00;;;;;;7364712;19;20095;-58
2022/06/20 13:34:04;;;;;;;6.82;4.30;;;23.40;1.00;;;;;;7362249;19;20010;-59
2022/06/20 13:36:48;;;;;;;6.40;4.00;;;23.40;1.00;;;;;;7388068;19;20021;-59
2022/06/20 13:39:23;;;;;;;;;;;23.50;1.00;;;;;;7367909;19;20098;-57
2022/06/20 13:41:56;;;;;;;6.88;4.10;;;23.80;1.00;;;;;;7364482;19;20391;-59
2022/06/20 13:44:34;;;;;;;6.30;4.15;;;23.50;1.00;;;;;;7364198;19;20014;-59
2022/06/20 13:47:12;;;;;;;7.85;4.28;;;23.20;1.00;;;;;;7367293;19;20014;-59
2022/06/20 13:49:54;;;;;;;9.27;4.40;;;23.00;1.00;;;;;;7368163;19;20018;-57
2022/06/20 13:52:29;;;;;;;12.30;3.75;;;22.50;1.00;;;;;;7363601;19;20007;-59
2022/06/20 13:55:07;;;;;;;5.72;3.65;;;22.30;1.00;;;;;;7362849;19;20022;-58
2022/06/20 13:57:41;;;;;;;5.40;3.72;;;22.40;1.00;;;;;;7386553;19;20470;-58
2022/06/20 14:00:23;;;;;;;10.10;4.13;;;22.30;1.00;;;;;;7365174;19;20514;-59
2022/06/20 14:03:18;;;;;;;6.15;3.92;;;22.40;1.00;;;;;;7364773;19;20010;-60
2022/06/20 14:05:51;;;;;;;5.65;3.38;;;22.10;1.00;;;;;;7364403;19;20081;-58
2022/06/20 14:08:24;;;;;;;9.23;4.00;;;22.40;1.00;;;;;;7365578;19;20521;-59
2022/06/20 14:10:56;;;;;;;4.28;3.30;;;22.70;1.00;;;;;;7363990;19;20106;-59
2022/06/20 14:13:32;;;;;;;5.57;3.22;;;22.90;1.00;;;;;;7362647;19;20013;-59
2022/06/20 14:16:21;;;;;;;8.07;4.00;;;23.10;1.00;;;;;;7365206;19;20025;-59
2022/06/20 14:18:54;;;;;;;8.30;3.78;;;23.00;1.00;;;;;;7364371;19;20014;-60
2022/06/20 14:21:35;;;;;;;5.77;3.53;;;22.70;1.00;;;;;;7386379;19;20489;-58
2022/06/20 14:24:17;;;;;;;5.70;3.58;;;22.70;1.00;;;;;;7359861;19;20252;-58
2022/06/20 14:26:47;;;;;;;5.93;3.97;;;22.70;1.00;;;;;;7364649;19;19999;-58
2022/06/20 14:29:23;;;;;;;7.43;3.78;;;22.70;1.00;;;;;;7364272;19;20006;-58
2022/06/20 14:31:59;;;;;;;8.27;3.72;;;22.40;1.00;;;;;;7363080;19;20420;-59